Time;durP1;ratioP1;P1;durP2;ratioP2;P2;SDS_P1;SDS_P2;PMS_P1;PMS_P2;Temp;Humidity;BMP_temperature;BMP_pressure;BME280_temperature;BME280_humidity;BME280_pressure;Samples;Min_cycle;Max_cycle;Signal;HPM_P1;HPM_P2
2022/12/25 00:00:35;;;;;;;7.22;2.60;;;;;;;;;;5039049;28;20057;-83
2022/12/25 00:03:01;;;;;;;5.95;2.13;;;;;;;;;;5038644;28;20033;-82
2022/12/25 00:05:27;;;;;;;7.78;2.30;;;;;;;;;;5037383;28;20029;-84
2022/12/25 00:07:53;;;;;;;4.28;2.08;;;;;;;;;;5041813;28;20034;-81
2022/12/25 00:10:19;;;;;;;5.43;2.47;;;;;;;;;;5038076;28;20248;-85
2022/12/25 00:12:45;;;;;;;7.40;2.70;;;;;;;;;;5038276;28;20033;-86
2022/12/25 00:15:11;;;;;;;7.70;2.83;;;;;;;;;;5038324;28;20077;-82
2022/12/25 00:17:37;;;;;;;6.00;2.40;;;;;;;;;;5038356;28;20055;-84
2022/12/25 00:20:04;;;;;;;6.15;2.65;;;;;;;;;;5038767;28;20063;-83
2022/12/25 00:22:29;;;;;;;5.93;2.80;;;;;;;;;;5037351;28;20026;-83
2022/12/25 00:24:55;;;;;;;9.23;3.80;;;;;;;;;;5038143;28;20079;-82
2022/12/25 00:27:21;;;;;;;8.00;3.30;;;;;;;;;;5040281;28;20400;-80
2022/12/25 00:29:47;;;;;;;7.13;3.47;;;;;;;;;;5043714;28;20037;-83
2022/12/25 00:32:13;;;;;;;7.45;3.22;;;;;;;;;;5039539;28;20049;-85
2022/12/25 00:34:39;;;;;;;7.50;3.60;;;;;;;;;;5040162;28;20045;-83
2022/12/25 00:37:05;;;;;;;9.65;3.55;;;;;;;;;;5038832;28;20471;-83
2022/12/25 00:39:31;;;;;;;6.38;2.90;;;;;;;;;;5038627;28;20128;-83
2022/12/25 00:44:42;;;;;;;6.53;3.40;;;;;;;;;;5038336;28;20477;-84
2022/12/25 00:47:08;;;;;;;8.07;3.75;;;;;;;;;;5037979;28;20044;-83
2022/12/25 00:49:34;;;;;;;6.13;3.35;;;;;;;;;;5036495;28;20033;-83
2022/12/25 00:52:00;;;;;;;5.65;2.85;;;;;;;;;;5037954;28;20042;-83
2022/12/25 00:54:26;;;;;;;8.20;2.88;;;;;;;;;;5037388;28;20032;-84
2022/12/25 00:56:52;;;;;;;7.47;3.25;;;;;;;;;;5036400;28;20022;-82
2022/12/25 00:59:18;;;;;;;7.13;3.33;;;;;;;;;;5037575;28;20127;-83
2022/12/25 01:01:44;;;;;;;9.07;3.25;;;;;;;;;;5037267;28;20029;-85
2022/12/25 01:04:11;;;;;;;7.43;3.00;;;;;;;;;;5036582;28;20430;-82
2022/12/25 01:06:37;;;;;;;5.88;3.10;;;;;;;;;;5025019;28;20167;-83
2022/12/25 01:11:48;;;;;;;6.68;2.90;;;;;;;;;;5037899;28;20078;-82
2022/12/25 01:14:14;;;;;;;7.88;3.08;;;;;;;;;;5036745;28;20029;-87
2022/12/25 01:16:40;;;;;;;6.75;2.75;;;;;;;;;;5035498;28;20475;-83
2022/12/25 01:19:06;;;;;;;6.38;3.15;;;;;;;;;;5036036;28;20472;-81
2022/12/25 01:21:33;;;;;;;6.78;2.70;;;;;;;;;;5036210;28;20033;-85
2022/12/25 01:23:59;;;;;;;6.07;2.92;;;;;;;;;;5036140;28;20033;-82
2022/12/25 01:26:26;;;;;;;7.30;2.90;;;;;;;;;;5035672;28;20032;-82
2022/12/25 01:28:52;;;;;;;5.38;2.60;;;;;;;;;;5036134;28;20030;-82
2022/12/25 01:31:20;;;;;;;6.78;2.83;;;;;;;;;;5036451;28;20045;-83
2022/12/25 01:33:46;;;;;;;6.03;2.72;;;;;;;;;;5017382;28;20025;-82
2022/12/25 01:36:16;;;;;;;6.13;2.58;;;;;;;;;;5031472;28;20018;-82
2022/12/25 01:38:43;;;;;;;6.63;2.97;;;;;;;;;;5017336;28;20025;-82
2022/12/25 01:41:10;;;;;;;6.63;2.83;;;;;;;;;;5026976;28;20467;-82
2022/12/25 01:43:55;;;;;;;5.25;2.40;;;;;;;;;;5036973;28;20107;-83
2022/12/25 01:46:21;;;;;;;5.80;2.50;;;;;;;;;;5034043;28;20368;-85
2022/12/25 01:48:47;;;;;;;6.85;3.13;;;;;;;;;;5038311;28;20036;-84
2022/12/25 01:51:43;;;;;;;6.90;2.40;;;;;;;;;;5039465;28;20041;-83
2022/12/25 01:54:14;;;;;;;7.25;3.10;;;;;;;;;;5035203;28;20033;-81
2022/12/25 01:56:41;;;;;;;6.13;2.78;;;;;;;;;;5035461;28;20047;-83
2022/12/25 01:59:07;;;;;;;6.45;2.92;;;;;;;;;;5036820;28;20025;-83
2022/12/25 02:01:33;;;;;;;8.43;3.00;;;;;;;;;;5037287;28;20025;-83
2022/12/25 02:04:05;;;;;;;8.43;2.85;;;;;;;;;;5037429;28;20029;-86
2022/12/25 02:06:31;;;;;;;6.43;2.30;;;;;;;;;;5037052;28;20495;-83
2022/12/25 02:08:59;;;;;;;6.05;2.08;;;;;;;;;;5037092;28;20064;-84
2022/12/25 02:14:11;;;;;;;4.50;2.10;;;;;;;;;;5036519;28;20056;-84
2022/12/25 02:16:39;;;;;;;5.75;2.72;;;;;;;;;;5035817;28;20029;-82
2022/12/25 02:19:15;;;;;;;4.95;2.00;;;;;;;;;;5034965;28;20029;-82
2022/12/25 02:21:47;;;;;;;5.43;2.13;;;;;;;;;;5036946;28;20026;-83
2022/12/25 02:24:13;;;;;;;4.57;1.90;;;;;;;;;;5037787;28;20268;-82
2022/12/25 02:26:45;;;;;;;6.70;2.10;;;;;;;;;;5037401;28;20048;-82
2022/12/25 02:29:17;;;;;;;6.38;2.35;;;;;;;;;;5040138;28;20037;-81
2022/12/25 02:31:47;;;;;;;4.97;2.25;;;;;;;;;;5037942;28;20033;-82
2022/12/25 02:34:28;;;;;;;5.45;2.53;;;;;;;;;;5033770;28;20357;-82
2022/12/25 02:37:01;;;;;;;5.40;2.20;;;;;;;;;;5036815;28;20056;-82
2022/12/25 02:42:20;;;;;;;8.38;2.40;;;;;;;;;;5040045;28;20036;-85
2022/12/25 03:07:15;;;;;;;7.57;2.97;;;;;;;;;;5039915;28;20565;-85
2022/12/25 03:12:46;;;;;;;7.03;3.50;;;;;;;;;;5038567;28;20076;-82
2022/12/25 03:17:59;;;;;;;5.63;3.40;;;;;;;;;;5039230;28;20041;-83
2022/12/25 03:28:41;;;;;;;6.82;3.15;;;;;;;;;;5038762;28;20045;-82
2022/12/25 03:31:21;;;;;;;6.70;3.42;;;;;;;;;;5037549;28;20045;-82
2022/12/25 03:36:59;;;;;;;7.43;3.47;;;;;;;;;;5020309;28;20093;-82
2022/12/25 04:37:56;;;;;;;6.65;3.17;;;;;;;;;;5020559;28;20468;-83
2022/12/25 04:40:22;;;;;;;7.57;3.95;;;;;;;;;;5021495;28;20519;-80
2022/12/25 04:42:51;;;;;;;8.20;4.13;;;;;;;;;;5030878;28;20129;-85
2022/12/25 04:45:17;;;;;;;6.30;3.40;;;;;;;;;;5043017;28;20639;-83
2022/12/25 04:47:43;;;;;;;7.63;3.70;;;;;;;;;;5043750;28;20064;-83
2022/12/25 04:50:09;;;;;;;6.93;4.10;;;;;;;;;;5041014;28;20029;-83
2022/12/25 04:52:36;;;;;;;12.48;4.45;;;;;;;;;;5037980;28;20033;-82
2022/12/25 04:55:03;;;;;;;11.15;3.97;;;;;;;;;;5036649;28;20021;-82
2022/12/25 04:57:29;;;;;;;7.65;4.30;;;;;;;;;;5036999;28;20093;-82
2022/12/25 04:59:55;;;;;;;8.02;4.28;;;;;;;;;;5038098;28;20047;-81
2022/12/25 05:02:21;;;;;;;9.73;4.00;;;;;;;;;;5036756;28;20021;-82
2022/12/25 05:04:47;;;;;;;7.40;4.07;;;;;;;;;;5038281;28;20059;-83
2022/12/25 05:07:13;;;;;;;8.35;3.58;;;;;;;;;;5037150;28;20032;-85
2022/12/25 05:09:42;;;;;;;10.65;4.82;;;;;;;;;;5036565;28;20036;-82
2022/12/25 05:12:09;;;;;;;9.30;4.50;;;;;;;;;;5036742;28;20052;-83
2022/12/25 05:14:35;;;;;;;11.80;4.80;;;;;;;;;;5037872;28;20022;-84
2022/12/25 05:17:01;;;;;;;10.20;4.55;;;;;;;;;;5036003;28;20538;-83
2022/12/25 05:19:28;;;;;;;9.35;5.03;;;;;;;;;;5038993;28;20052;-82
2022/12/25 05:21:55;;;;;;;8.77;4.70;;;;;;;;;;5038425;28;20032;-83
2022/12/25 05:24:24;;;;;;;6.43;4.07;;;;;;;;;;5036959;28;20021;-80
2022/12/25 05:26:50;;;;;;;9.63;5.00;;;;;;;;;;5035673;28;20059;-82
2022/12/25 05:29:16;;;;;;;8.30;4.85;;;;;;;;;;5038061;28;20038;-81
2022/12/25 05:31:42;;;;;;;8.98;5.05;;;;;;;;;;5037523;28;20047;-82
2022/12/25 05:34:08;;;;;;;10.57;5.00;;;;;;;;;;5037422;28;20454;-82
2022/12/25 05:36:34;;;;;;;11.52;5.28;;;;;;;;;;5035537;28;20028;-82
2022/12/25 05:39:00;;;;;;;7.60;4.20;;;;;;;;;;5037005;28;20053;-81
2022/12/25 05:41:27;;;;;;;8.07;4.28;;;;;;;;;;5030456;28;20022;-83
2022/12/25 05:43:53;;;;;;;10.18;4.18;;;;;;;;;;5017408;28;20022;-83
2022/12/25 05:46:19;;;;;;;8.88;4.93;;;;;;;;;;5051600;28;20059;-81
2022/12/25 05:48:45;;;;;;;7.32;4.43;;;;;;;;;;5036748;28;20029;-83
2022/12/25 05:51:12;;;;;;;8.30;5.00;;;;;;;;;;5036177;28;20048;-83
2022/12/25 05:53:39;;;;;;;11.00;4.53;;;;;;;;;;5036637;28;20483;-83
2022/12/25 05:56:06;;;;;;;6.57;3.92;;;;;;;;;;5036851;28;20400;-83
2022/12/25 05:58:33;;;;;;;8.90;4.45;;;;;;;;;;5036797;28;20021;-81
2022/12/25 06:00:58;;;;;;;6.50;3.88;;;;;;;;;;5036917;28;20032;-83
2022/12/25 06:03:25;;;;;;;9.30;4.75;;;;;;;;;;5035570;28;20033;-83
2022/12/25 06:05:51;;;;;;;7.68;4.47;;;;;;;;;;5034828;28;20029;-83
2022/12/25 06:08:17;;;;;;;7.82;3.95;;;;;;;;;;5034768;28;20268;-83
2022/12/25 06:10:43;;;;;;;9.07;4.93;;;;;;;;;;5034341;28;20029;-83
2022/12/25 06:13:09;;;;;;;7.68;4.32;;;;;;;;;;5036071;28;20078;-82
2022/12/25 06:15:38;;;;;;;9.40;4.82;;;;;;;;;;5035849;28;20104;-82
2022/12/25 06:18:05;;;;;;;8.43;5.03;;;;;;;;;;5035225;28;20029;-83
2022/12/25 06:20:31;;;;;;;8.82;4.05;;;;;;;;;;5035141;28;20424;-83
2022/12/25 06:22:57;;;;;;;8.82;3.97;;;;;;;;;;5035871;28;20166;-81
2022/12/25 06:25:22;;;;;;;10.55;4.60;;;;;;;;;;5038005;28;20036;-80
2022/12/25 06:27:48;;;;;;;7.60;4.18;;;;;;;;;;5041785;28;20033;-83
2022/12/25 06:30:15;;;;;;;6.72;4.15;;;;;;;;;;5033538;28;20095;-83
2022/12/25 06:32:41;;;;;;;6.88;4.03;;;;;;;;;;5030697;28;20113;-84
2022/12/25 06:35:07;;;;;;;8.63;4.28;;;;;;;;;;5031446;28;20021;-83
2022/12/25 06:37:33;;;;;;;7.35;4.63;;;;;;;;;;5033568;28;20017;-82
2022/12/25 06:40:00;;;;;;;9.23;4.70;;;;;;;;;;5033607;28;20095;-82
2022/12/25 06:42:26;;;;;;;7.47;4.47;;;;;;;;;;5034730;28;20529;-83
2022/12/25 06:44:52;;;;;;;9.60;4.38;;;;;;;;;;5032842;28;20022;-82
2022/12/25 06:47:18;;;;;;;7.70;4.20;;;;;;;;;;5033636;28;20032;-83
2022/12/25 06:49:44;;;;;;;10.10;3.92;;;;;;;;;;5034160;28;20030;-81
2022/12/25 06:58:18;;;;;;;7.72;4.50;;;;;;;;;;5034866;28;20037;-81
2022/12/25 07:00:44;;;;;;;8.00;4.75;;;;;;;;;;5035088;28;20036;-83
2022/12/25 07:03:14;;;;;;;8.95;4.95;;;;;;;;;;5035298;28;20022;-83
2022/12/25 07:05:40;;;;;;;8.38;4.47;;;;;;;;;;5033404;28;20040;-83
2022/12/25 07:08:06;;;;;;;10.73;4.80;;;;;;;;;;5035404;28;20025;-82
2022/12/25 07:10:32;;;;;;;8.13;4.57;;;;;;;;;;5035719;28;20434;-83
2022/12/25 07:12:58;;;;;;;9.75;4.78;;;;;;;;;;5034053;28;20026;-83
2022/12/25 07:15:24;;;;;;;9.82;4.95;;;;;;;;;;5033531;28;20508;-83
2022/12/25 07:17:50;;;;;;;7.88;4.72;;;;;;;;;;5033009;28;20072;-83
2022/12/25 07:20:16;;;;;;;9.18;4.60;;;;;;;;;;5033291;28;20029;-82
2022/12/25 07:22:42;;;;;;;8.77;4.78;;;;;;;;;;5033760;28;20543;-83
2022/12/25 07:25:08;;;;;;;7.70;4.70;;;;;;;;;;5033820;28;20053;-83
2022/12/25 07:27:33;;;;;;;11.23;4.97;;;;;;;;;;5038724;28;20113;-83
2022/12/25 07:29:59;;;;;;;10.93;5.43;;;;;;;;;;5039051;28;20029;-83
2022/12/25 07:32:25;;;;;;;14.93;7.85;;;;;;;;;;5038281;28;20024;-84
2022/12/25 07:34:51;;;;;;;14.45;7.43;;;;;;;;;;5036681;28;20570;-83
2022/12/25 07:37:17;;;;;;;13.20;6.40;;;;;;;;;;5038572;28;20080;-82
2022/12/25 07:39:43;;;;;;;11.65;6.47;;;;;;;;;;5037895;28;20028;-81
2022/12/25 07:42:09;;;;;;;14.52;7.22;;;;;;;;;;5037633;28;20033;-83
2022/12/25 07:44:35;;;;;;;13.68;7.18;;;;;;;;;;5035956;28;20017;-82
2022/12/25 07:47:01;;;;;;;15.75;7.45;;;;;;;;;;5035009;28;20022;-83
2022/12/25 07:49:27;;;;;;;14.25;7.45;;;;;;;;;;5052937;28;20033;-83
2022/12/25 07:51:53;;;;;;;18.33;9.55;;;;;;;;;;5037534;28;20055;-82
2022/12/25 07:54:19;;;;;;;14.98;7.35;;;;;;;;;;5037447;28;20018;-81
2022/12/25 07:56:45;;;;;;;13.68;8.73;;;;;;;;;;5036740;28;20467;-83
2022/12/25 07:59:11;;;;;;;14.07;8.18;;;;;;;;;;5036936;28;20028;-83
2022/12/25 08:01:37;;;;;;;11.57;7.25;;;;;;;;;;5036681;28;20030;-82
2022/12/25 08:04:04;;;;;;;14.88;7.05;;;;;;;;;;5035967;28;20025;-83
2022/12/25 08:06:32;;;;;;;11.85;7.57;;;;;;;;;;5037217;28;20048;-81
2022/12/25 08:09:02;;;;;;;15.00;7.82;;;;;;;;;;5025054;28;20030;-83
2022/12/25 08:11:28;;;;;;;11.75;7.35;;;;;;;;;;5037452;28;20057;-83
2022/12/25 08:13:54;;;;;;;12.68;7.82;;;;;;;;;;5038310;28;20029;-84
2022/12/25 08:16:20;;;;;;;15.38;8.02;;;;;;;;;;5037812;28;20030;-84
2022/12/25 08:18:46;;;;;;;13.05;7.85;;;;;;;;;;5036193;28;20040;-85
2022/12/25 08:21:13;;;;;;;15.02;8.75;;;;;;;;;;5039543;28;20480;-82
2022/12/25 08:23:40;;;;;;;18.23;9.35;;;;;;;;;;5042088;28;20403;-83
2022/12/25 08:26:07;;;;;;;14.63;7.90;;;;;;;;;;5039074;28;20089;-82
2022/12/25 08:28:33;;;;;;;13.23;7.00;;;;;;;;;;5036581;28;20029;-83
2022/12/25 08:31:04;;;;;;;10.65;6.63;;;;;;;;;;5035558;28;20026;-83
2022/12/25 08:33:30;;;;;;;12.23;6.50;;;;;;;;;;5038358;28;20073;-83
2022/12/25 08:36:00;;;;;;;12.27;6.70;;;;;;;;;;5036036;28;20056;-83
2022/12/25 08:38:27;;;;;;;13.82;7.70;;;;;;;;;;5033669;28;20486;-83
2022/12/25 08:40:53;;;;;;;15.50;7.22;;;;;;;;;;5035447;28;20017;-84
2022/12/25 08:43:19;;;;;;;13.43;7.30;;;;;;;;;;5032817;28;20026;-84
2022/12/25 08:45:46;;;;;;;14.85;7.82;;;;;;;;;;5037137;28;20041;-83
2022/12/25 08:48:12;;;;;;;15.70;8.70;;;;;;;;;;5033934;28;20034;-83
2022/12/25 08:50:38;;;;;;;12.07;7.18;;;;;;;;;;5036114;28;20049;-83
2022/12/25 08:53:04;;;;;;;14.90;8.18;;;;;;;;;;5035727;28;20021;-83
2022/12/25 08:55:30;;;;;;;13.05;8.35;;;;;;;;;;5033848;28;20033;-83
2022/12/25 08:57:56;;;;;;;13.77;7.20;;;;;;;;;;5028951;28;20032;-83
2022/12/25 09:00:22;;;;;;;13.50;7.70;;;;;;;;;;5032149;28;20028;-83
2022/12/25 09:02:48;;;;;;;11.38;6.90;;;;;;;;;;5036137;28;20068;-82
2022/12/25 09:05:14;;;;;;;15.68;9.63;;;;;;;;;;5035812;28;20588;-82
2022/12/25 09:07:40;;;;;;;13.00;7.88;;;;;;;;;;5033190;28;20037;-83
2022/12/25 09:10:07;;;;;;;12.18;8.27;;;;;;;;;;5035584;28;20030;-82
2022/12/25 09:12:32;;;;;;;11.20;6.50;;;;;;;;;;5035185;28;20111;-83
2022/12/25 09:14:58;;;;;;;14.02;6.90;;;;;;;;;;5036085;28;20022;-83
2022/12/25 09:17:24;;;;;;;10.13;6.57;;;;;;;;;;5033753;28;20032;-83
2022/12/25 09:19:50;;;;;;;10.05;6.03;;;;;;;;;;5034138;28;20025;-83
2022/12/25 09:22:16;;;;;;;10.68;6.20;;;;;;;;;;5036276;28;20021;-81
2022/12/25 09:24:42;;;;;;;10.70;6.45;;;;;;;;;;5036241;28;20543;-82
2022/12/25 09:30:12;;;;;;;9.15;5.97;;;;;;;;;;5021302;28;20029;-83
2022/12/25 09:32:39;;;;;;;12.00;6.40;;;;;;;;;;5034666;28;20033;-83
2022/12/25 09:35:05;;;;;;;8.98;5.55;;;;;;;;;;5035831;28;20071;-83
2022/12/25 09:37:31;;;;;;;9.75;5.88;;;;;;;;;;5034276;28;20435;-82
2022/12/25 09:39:57;;;;;;;10.75;5.32;;;;;;;;;;5036014;28;20030;-83
2022/12/25 09:42:24;;;;;;;11.20;5.78;;;;;;;;;;5035526;28;20055;-82
2022/12/25 09:45:02;;;;;;;11.73;6.63;;;;;;;;;;5033183;28;20032;-82
2022/12/25 09:47:32;;;;;;;11.68;7.15;;;;;;;;;;5031270;28;20025;-82
2022/12/25 09:49:58;;;;;;;9.20;5.47;;;;;;;;;;5034400;28;20018;-82
2022/12/25 09:52:45;;;;;;;8.30;4.80;;;;;;;;;;5034959;28;20601;-82
2022/12/25 09:55:11;;;;;;;10.40;5.68;;;;;;;;;;5029907;28;20034;-83
2022/12/25 09:57:38;;;;;;;10.35;5.28;;;;;;;;;;5034001;28;20101;-83
2022/12/25 10:00:06;;;;;;;9.43;5.05;;;;;;;;;;5031837;28;20071;-82
2022/12/25 10:02:51;;;;;;;10.35;5.30;;;;;;;;;;5033363;28;20980;-82
2022/12/25 10:05:20;;;;;;;7.20;4.68;;;;;;;;;;5033363;28;20021;-82
2022/12/25 10:07:52;;;;;;;8.55;5.43;;;;;;;;;;5030701;28;20021;-80
2022/12/25 10:10:37;;;;;;;11.35;5.82;;;;;;;;;;5030588;28;20045;-81
2022/12/25 10:13:15;;;;;;;11.80;6.28;;;;;;;;;;5031812;28;20017;-82
2022/12/25 10:16:00;;;;;;;9.57;5.45;;;;;;;;;;5032375;28;20032;-82
2022/12/25 10:18:34;;;;;;;9.75;6.00;;;;;;;;;;5049636;28;20052;-83
2022/12/25 10:21:01;;;;;;;10.93;6.22;;;;;;;;;;5036966;28;20045;-82
2022/12/25 10:23:33;;;;;;;13.85;8.27;;;;;;;;;;5035724;28;20044;-82
2022/12/25 10:25:59;;;;;;;20.55;10.77;;;;;;;;;;5034142;28;20030;-82
2022/12/25 10:28:29;;;;;;;10.32;6.65;;;;;;;;;;5033335;28;20025;-82
2022/12/25 10:30:58;;;;;;;9.35;5.78;;;;;;;;;;5034443;28;20042;-83
2022/12/25 10:33:24;;;;;;;9.13;5.60;;;;;;;;;;5036006;28;20033;-83
2022/12/25 10:35:50;;;;;;;10.50;6.25;;;;;;;;;;5033645;28;20032;-83
2022/12/25 10:38:17;;;;;;;8.23;5.32;;;;;;;;;;5034610;28;20101;-83
2022/12/25 10:40:43;;;;;;;10.57;5.57;;;;;;;;;;5033665;28;20068;-82
2022/12/25 10:43:20;;;;;;;9.07;4.72;;;;;;;;;;5032558;28;20029;-82
2022/12/25 10:45:47;;;;;;;9.00;4.82;;;;;;;;;;5032747;28;20152;-81
2022/12/25 10:48:18;;;;;;;8.68;4.78;;;;;;;;;;5035027;28;20022;-83
2022/12/25 10:50:44;;;;;;;8.75;4.38;;;;;;;;;;5033817;28;20488;-82
2022/12/25 10:53:17;;;;;;;7.90;4.63;;;;;;;;;;5035686;28;20057;-82
2022/12/25 10:55:53;;;;;;;9.68;4.53;;;;;;;;;;5033744;28;20029;-81
2022/12/25 10:58:19;;;;;;;9.68;4.22;;;;;;;;;;5033583;28;20033;-83
2022/12/25 11:00:51;;;;;;;8.02;4.43;;;;;;;;;;5036984;28;20053;-83
2022/12/25 11:03:22;;;;;;;11.00;4.43;;;;;;;;;;5039215;28;20030;-83
2022/12/25 11:05:50;;;;;;;9.05;4.22;;;;;;;;;;5037628;28;20048;-83
2022/12/25 11:08:21;;;;;;;9.95;4.50;;;;;;;;;;5038723;28;20036;-83
2022/12/25 11:10:56;;;;;;;8.95;4.72;;;;;;;;;;5036110;28;20116;-83
2022/12/25 11:13:29;;;;;;;8.95;5.65;;;;;;;;;;5037924;28;20319;-82
2022/12/25 11:15:55;;;;;;;;;;;;;;;;;;5037237;28;20033;-82
2022/12/25 11:18:22;;;;;;;9.25;6.35;;;;;;;;;;5036477;28;19912;-82
2022/12/25 11:20:52;;;;;;;11.38;7.25;;;;;;;;;;5036450;28;20450;-82
2022/12/25 11:23:19;;;;;;;10.15;7.05;;;;;;;;;;5037644;28;20102;-84
2022/12/25 11:25:54;;;;;;;11.35;7.20;;;;;;;;;;5035172;28;20048;-81
2022/12/25 11:28:20;;;;;;;9.70;6.85;;;;;;;;;;5034601;28;20052;-83
2022/12/25 11:30:49;;;;;;;11.23;7.35;;;;;;;;;;5036293;28;20479;-83
2022/12/25 11:33:15;;;;;;;10.30;7.03;;;;;;;;;;5037091;28;20089;-83
2022/12/25 11:35:51;;;;;;;11.95;7.18;;;;;;;;;;5035207;28;20029;-84
2022/12/25 11:38:18;;;;;;;10.35;7.15;;;;;;;;;;5035353;28;20009;-82
2022/12/25 11:40:46;;;;;;;9.50;6.55;;;;;;;;;;5036812;28;20546;-81
2022/12/25 11:43:17;;;;;;;11.32;7.20;;;;;;;;;;5039272;28;20083;-83
2022/12/25 11:45:48;;;;;;;10.15;6.40;;;;;;;;;;5037534;28;20053;-82
2022/12/25 11:48:21;;;;;;;12.57;7.78;;;;;;;;;;5034192;28;20072;-81
2022/12/25 11:50:49;;;;;;;10.30;6.60;;;;;;;;;;5034625;28;20089;-82
2022/12/25 11:53:28;;;;;;;10.57;7.00;;;;;;;;;;5034262;28;20522;-82
2022/12/25 11:56:13;;;;;;;9.90;6.75;;;;;;;;;;5043561;28;20526;-80
2022/12/25 11:58:41;;;;;;;9.70;6.28;;;;;;;;;;5038446;28;20038;-83
2022/12/25 12:01:14;;;;;;;8.90;6.40;;;;;;;;;;5045451;28;20040;-85
2022/12/25 12:03:40;;;;;;;9.32;6.15;;;;;;;;;;5038535;28;20033;-85
2022/12/25 12:06:12;;;;;;;8.65;5.80;;;;;;;;;;5039140;28;20025;-83
2022/12/25 12:08:38;;;;;;;8.90;5.28;;;;;;;;;;5040937;28;20033;-84
2022/12/25 12:11:18;;;;;;;9.18;5.80;;;;;;;;;;5038182;28;20562;-85
2022/12/25 12:13:44;;;;;;;9.40;5.63;;;;;;;;;;5039097;28;20029;-84
2022/12/25 12:16:10;;;;;;;9.25;5.28;;;;;;;;;;5037862;28;20067;-85
2022/12/25 12:18:36;;;;;;;9.75;5.55;;;;;;;;;;5038078;28;20025;-84
2022/12/25 12:21:07;;;;;;;10.43;6.60;;;;;;;;;;5038535;28;20033;-85
2022/12/25 12:23:53;;;;;;;8.80;5.30;;;;;;;;;;5034467;28;20563;-85
2022/12/25 12:26:20;;;;;;;7.90;4.72;;;;;;;;;;5033676;28;20029;-85
2022/12/25 12:28:47;;;;;;;8.98;4.50;;;;;;;;;;5036903;28;20406;-85
2022/12/25 12:31:13;;;;;;;8.48;4.50;;;;;;;;;;5037692;28;20037;-84
2022/12/25 12:33:43;;;;;;;9.05;4.55;;;;;;;;;;5037208;28;20030;-83
2022/12/25 12:36:13;;;;;;;6.07;3.60;;;;;;;;;;5036405;28;20479;-84
2022/12/25 12:38:40;;;;;;;7.43;3.65;;;;;;;;;;5037414;28;20399;-85
2022/12/25 12:41:07;;;;;;;6.63;3.40;;;;;;;;;;5038803;28;20035;-84
2022/12/25 12:43:35;;;;;;;7.68;3.42;;;;;;;;;;5038267;28;20387;-85
2022/12/25 12:46:04;;;;;;;8.23;3.58;;;;;;;;;;5026308;28;20040;-85
2022/12/25 12:48:37;;;;;;;8.60;3.58;;;;;;;;;;5039088;28;20104;-83
2022/12/25 12:51:07;;;;;;;5.40;3.28;;;;;;;;;;5037619;28;20186;-83
2022/12/25 12:53:34;;;;;;;6.45;3.25;;;;;;;;;;5035548;28;20028;-85
2022/12/25 12:56:32;;;;;;;10.57;3.97;;;;;;;;;;5034370;28;20056;-84
2022/12/25 12:58:58;;;;;;;7.93;3.83;;;;;;;;;;4994816;28;20054;-85
2022/12/25 13:01:33;;;;;;;6.57;4.22;;;;;;;;;;5004623;28;20053;-84
2022/12/25 13:03:59;;;;;;;6.53;3.67;;;;;;;;;;4988295;28;20110;-82
2022/12/25 13:06:52;;;;;;;7.35;3.85;;;;;;;;;;4988249;28;20066;-84
2022/12/25 13:09:23;;;;;;;8.05;4.30;;;;;;;;;;4988209;28;20054;-85
2022/12/25 13:11:49;;;;;;;6.30;4.17;;;;;;;;;;4988813;28;20188;-83
2022/12/25 13:14:18;;;;;;;7.68;4.82;;;;;;;;;;4992560;28;20038;-83
2022/12/25 13:16:45;;;;;;;8.48;4.75;;;;;;;;;;4994381;28;20030;-83
2022/12/25 13:19:13;;;;;;;10.07;4.70;;;;;;;;;;4991410;28;20497;-84
2022/12/25 13:21:39;;;;;;;7.20;4.47;;;;;;;;;;4993910;28;20555;-82
2022/12/25 13:24:17;;;;;;;9.98;5.07;;;;;;;;;;4977619;28;20068;-83
2022/12/25 13:26:43;;;;;;;8.98;5.03;;;;;;;;;;4994850;28;20041;-83
2022/12/25 13:29:28;;;;;;;8.75;5.30;;;;;;;;;;4995149;28;20042;-85
2022/12/25 13:31:54;;;;;;;8.98;5.60;;;;;;;;;;5011583;28;20053;-83
2022/12/25 13:34:31;;;;;;;7.70;5.30;;;;;;;;;;5009904;28;20034;-83
2022/12/25 13:37:05;;;;;;;10.73;5.82;;;;;;;;;;5036248;28;20026;-83
2022/12/25 13:39:33;;;;;;;9.52;5.72;;;;;;;;;;5040142;28;20025;-83
2022/12/25 13:42:05;;;;;;;8.30;5.22;;;;;;;;;;5051903;28;20120;-82
2022/12/25 13:44:37;;;;;;;12.38;6.13;;;;;;;;;;5045429;28;20029;-82
2022/12/25 13:47:22;;;;;;;11.33;6.50;;;;;;;;;;5035252;28;20387;-82
2022/12/25 13:53:12;;;;;;;10.48;6.50;;;;;;;;;;3741036;28;20530;-84
2022/12/25 13:55:38;;;;;;;11.73;7.57;;;;;;;;;;5033396;28;20022;-84
2022/12/25 13:58:05;;;;;;;10.07;7.07;;;;;;;;;;5036059;28;20147;-82
2022/12/25 14:00:38;;;;;;;11.18;6.88;;;;;;;;;;5035582;28;20029;-83
2022/12/25 14:03:08;;;;;;;10.77;7.28;;;;;;;;;;5034099;28;20048;-82
2022/12/25 14:05:35;;;;;;;10.45;8.05;;;;;;;;;;5032927;28;20036;-83
2022/12/25 14:08:03;;;;;;;12.88;8.38;;;;;;;;;;5034173;28;20480;-83
2022/12/25 14:10:32;;;;;;;12.88;8.63;;;;;;;;;;5040467;28;20029;-83
2022/12/25 14:13:00;;;;;;;15.23;8.68;;;;;;;;;;5036625;28;20022;-82
2022/12/25 14:15:27;;;;;;;16.60;10.25;;;;;;;;;;5039036;28;20026;-81
2022/12/25 14:17:53;;;;;;;14.55;10.25;;;;;;;;;;5032294;28;20031;-82
2022/12/25 14:20:24;;;;;;;15.85;10.43;;;;;;;;;;5035245;28;20057;-84
2022/12/25 14:22:52;;;;;;;16.10;10.68;;;;;;;;;;5045251;28;20026;-83
2022/12/25 14:25:19;;;;;;;15.45;10.57;;;;;;;;;;5036239;28;20049;-83
2022/12/25 14:27:50;;;;;;;14.80;10.15;;;;;;;;;;5036338;28;20037;-83
2022/12/25 14:30:16;;;;;;;16.85;10.10;;;;;;;;;;5035625;28;20380;-83
2022/12/25 14:32:44;;;;;;;16.50;10.65;;;;;;;;;;5034145;28;20026;-84
2022/12/25 14:35:10;;;;;;;15.15;9.88;;;;;;;;;;5024458;28;20213;-84
2022/12/25 14:37:37;;;;;;;13.68;9.73;;;;;;;;;;5034321;28;20053;-82
2022/12/25 14:40:20;;;;;;;13.45;9.55;;;;;;;;;;5038871;28;20021;-82
2022/12/25 14:42:54;;;;;;;15.57;9.75;;;;;;;;;;5037431;28;20029;-84
2022/12/25 14:45:31;;;;;;;13.95;8.35;;;;;;;;;;5034050;28;20018;-81
2022/12/25 14:47:58;;;;;;;13.35;8.65;;;;;;;;;;5034831;28;20056;-84
2022/12/25 14:50:26;;;;;;;15.07;9.43;;;;;;;;;;5038615;28;20060;-83
2022/12/25 14:52:52;;;;;;;14.25;9.52;;;;;;;;;;5039687;28;20032;-82
2022/12/25 14:55:20;;;;;;;16.55;9.85;;;;;;;;;;5049024;28;20044;-85
2022/12/25 14:57:57;;;;;;;18.48;10.98;;;;;;;;;;5041393;28;20703;-83
2022/12/25 15:00:34;;;;;;;16.92;9.50;;;;;;;;;;5042214;28;20032;-84
2022/12/25 15:03:00;;;;;;;17.42;9.80;;;;;;;;;;5030480;28;20522;-83
2022/12/25 15:05:34;;;;;;;17.83;10.55;;;;;;;;;;5042930;28;20025;-84
2022/12/25 15:08:20;;;;;;;17.23;11.38;;;;;;;;;;5022769;28;20017;-84
2022/12/25 15:10:47;;;;;;;13.40;9.05;;;;;;;;;;5035937;28;20038;-83
2022/12/25 15:13:14;;;;;;;15.43;10.30;;;;;;;;;;5033042;28;20025;-84
2022/12/25 15:15:46;;;;;;;16.52;10.55;;;;;;;;;;5036020;28;20116;-83
2022/12/25 15:18:12;;;;;;;16.55;10.85;;;;;;;;;;5033308;28;20018;-83
2022/12/25 15:20:38;;;;;;;16.08;9.95;;;;;;;;;;5035119;28;20472;-82
2022/12/25 15:23:05;;;;;;;16.00;9.85;;;;;;;;;;5037040;28;20064;-82
2022/12/25 15:25:31;;;;;;;16.80;10.88;;;;;;;;;;5037701;28;20033;-83
2022/12/25 15:27:58;;;;;;;15.57;10.38;;;;;;;;;;5036944;28;20033;-84
2022/12/25 15:30:24;;;;;;;17.55;11.27;;;;;;;;;;5036998;28;20034;-84
2022/12/25 15:32:50;;;;;;;18.30;12.13;;;;;;;;;;5038032;28;20022;-84
2022/12/25 15:35:20;;;;;;;18.63;12.27;;;;;;;;;;5039276;28;20024;-83
2022/12/25 15:37:46;;;;;;;17.67;11.98;;;;;;;;;;5038484;28;20071;-84
2022/12/25 15:40:13;;;;;;;20.17;12.60;;;;;;;;;;5038605;28;20029;-82
2022/12/25 15:42:39;;;;;;;19.30;12.05;;;;;;;;;;5035960;28;20028;-82
2022/12/25 15:45:06;;;;;;;18.45;12.18;;;;;;;;;;5036120;28;20104;-83
2022/12/25 15:47:32;;;;;;;17.40;11.70;;;;;;;;;;5033376;28;20036;-83
2022/12/25 15:49:58;;;;;;;18.05;11.98;;;;;;;;;;5024298;28;20034;-84
2022/12/25 15:52:24;;;;;;;18.40;11.32;;;;;;;;;;5034700;28;20029;-82
2022/12/25 15:54:53;;;;;;;21.35;11.00;;;;;;;;;;5037488;28;20045;-85
2022/12/25 15:57:21;;;;;;;20.25;11.57;;;;;;;;;;5036364;28;20065;-83
2022/12/25 15:59:47;;;;;;;16.65;10.90;;;;;;;;;;5039966;28;20168;-84
2022/12/25 16:02:18;;;;;;;18.35;10.93;;;;;;;;;;5047305;28;20037;-83
2022/12/25 16:04:44;;;;;;;18.92;12.38;;;;;;;;;;5037788;28;20026;-84
2022/12/25 16:07:14;;;;;;;19.67;12.30;;;;;;;;;;5046990;28;20048;-83
2022/12/25 16:09:40;;;;;;;18.67;12.18;;;;;;;;;;5040374;28;20025;-83
2022/12/25 16:12:06;;;;;;;18.48;12.57;;;;;;;;;;5043715;28;20037;-82
2022/12/25 16:14:32;;;;;;;20.45;12.10;;;;;;;;;;5040958;28;20033;-83
2022/12/25 16:16:58;;;;;;;16.45;11.50;;;;;;;;;;5037621;28;20034;-82
2022/12/25 16:19:24;;;;;;;17.20;11.20;;;;;;;;;;5038253;28;20053;-81
2022/12/25 16:21:50;;;;;;;21.05;12.20;;;;;;;;;;5038777;28;20495;-84
2022/12/25 16:24:16;;;;;;;16.75;10.82;;;;;;;;;;5023175;28;20036;-83
2022/12/25 16:26:43;;;;;;;18.83;12.73;;;;;;;;;;5037811;28;20030;-82
2022/12/25 16:29:09;;;;;;;20.95;12.15;;;;;;;;;;5035618;28;20096;-83
2022/12/25 16:31:35;;;;;;;17.35;12.52;;;;;;;;;;5027396;28;20026;-84
2022/12/25 16:34:01;;;;;;;15.25;10.70;;;;;;;;;;5036145;28;20033;-83
2022/12/25 16:36:28;;;;;;;17.55;11.43;;;;;;;;;;5035135;28;20071;-82
2022/12/25 16:38:54;;;;;;;15.32;10.68;;;;;;;;;;5037652;28;20416;-84
2022/12/25 16:41:20;;;;;;;20.13;11.95;;;;;;;;;;5038390;28;20056;-82
2022/12/25 16:43:47;;;;;;;19.48;13.15;;;;;;;;;;5036820;28;20561;-81